Time;durP1;ratioP1;P1;durP2;ratioP2;P2;SDS_P1;SDS_P2;PMS_P1;PMS_P2;Temp;Humidity;BMP_temperature;BMP_pressure;BME280_temperature;BME280_humidity;BME280_pressure;Samples;Min_cycle;Max_cycle;Signal;HPM_P1;HPM_P2
2023/09/17 00:00:09;;;;;;;;;44.75;38.75;;;;;18.52;63.39;99632.28;5082327;28;8841;-68
2023/09/17 00:03:00;;;;;;;;;39.75;34.75;;;;;18.49;63.58;99627.13;4961175;28;8909;-68
2023/09/17 00:05:29;;;;;;;;;37.50;33.75;;;;;18.48;63.55;99627.22;5027018;28;9000;-66
2023/09/17 00:07:58;;;;;;;;;33.25;31.50;;;;;18.59;63.08;99624.84;5042024;28;9572;-67
2023/09/17 00:10:27;;;;;;;;;41.25;35.25;;;;;18.55;63.35;99629.47;5030185;28;8846;-67
2023/09/17 00:12:56;;;;;;;;;41.25;35.00;;;;;18.39;64.03;99625.03;5029795;28;8955;-67
2023/09/17 00:15:26;;;;;;;;;39.25;34.75;;;;;18.40;64.25;99622.28;5046338;28;8866;-66
2023/09/17 00:17:55;;;;;;;;;36.50;32.50;;;;;18.28;64.51;99625.59;5046704;28;8972;-66
2023/09/17 00:20:25;;;;;;;;;44.50;35.75;;;;;18.29;64.50;99620.19;5030092;28;8854;-68
2023/09/17 00:22:54;;;;;;;;;38.50;35.00;;;;;18.23;64.92;99616.97;5046543;28;8862;-68
2023/09/17 00:25:25;;;;;;;;;39.75;35.00;;;;;18.30;64.57;99621.91;5045390;28;8933;-67
2023/09/17 00:27:54;;;;;;;;;36.00;32.75;;;;;18.38;64.22;99617.97;5046183;28;8869;-68
2023/09/17 00:30:24;;;;;;;;;36.60;33.20;;;;;18.39;64.34;99611.72;5029800;28;9711;-67
2023/09/17 00:32:53;;;;;;;;;38.75;34.00;;;;;18.37;64.46;99608.28;5045412;28;8858;-66
2023/09/17 00:35:22;;;;;;;;;38.75;34.00;;;;;18.41;64.19;99612.50;4997244;28;8916;-67
2023/09/17 00:37:53;;;;;;;;;34.40;32.40;;;;;18.43;64.13;99607.97;5029455;28;8989;-69
2023/09/17 00:40:23;;;;;;;;;37.00;32.75;;;;;18.42;64.08;99604.47;5057493;28;8896;-67
2023/09/17 00:42:52;;;;;;;;;38.75;35.00;;;;;18.43;64.14;99598.19;5086904;28;8886;-68
2023/09/17 00:45:22;;;;;;;;;37.25;33.00;;;;;18.46;64.08;99598.03;5088724;28;8866;-67
2023/09/17 00:47:50;;;;;;;;;35.00;33.25;;;;;18.45;64.09;99595.44;5087460;28;8953;-67
2023/09/17 00:50:21;;;;;;;;;36.40;33.60;;;;;18.40;64.22;99595.66;5087589;28;8851;-68
2023/09/17 00:52:52;;;;;;;;;36.60;33.80;;;;;18.41;64.24;99593.88;5087292;28;8885;-67
2023/09/17 00:55:21;;;;;;;;;37.00;33.75;;;;;18.39;64.31;99593.97;5087577;28;8913;-67
2023/09/17 00:57:51;;;;;;;;;36.50;33.75;;;;;18.30;64.76;99597.09;5087130;28;8873;-67
2023/09/17 01:00:22;;;;;;;;;34.50;32.25;;;;;18.37;64.64;99598.50;5036583;28;8851;-68
2023/09/17 01:02:51;;;;;;;;;36.20;32.40;;;;;18.37;64.58;99595.84;5053586;28;9590;-68
2023/09/17 01:05:21;;;;;;;;;41.50;35.25;;;;;18.35;64.70;99606.56;5053018;28;8828;-67
2023/09/17 01:07:52;;;;;;;;;37.50;34.00;;;;;18.38;64.47;99605.53;5104396;28;8991;-67
2023/09/17 01:10:23;;;;;;;;;39.00;33.50;;;;;18.33;64.88;99602.28;5088466;28;8863;-67
2023/09/17 01:12:52;;;;;;;;;38.00;32.75;;;;;18.38;64.57;99605.53;5094457;28;8886;-67
2023/09/17 01:15:22;;;;;;;;;38.25;33.25;;;;;18.39;64.58;99609.06;5088462;28;8855;-68
2023/09/17 01:17:54;;;;;;;;;35.00;32.00;;;;;18.46;64.25;99598.03;5087174;28;8890;-67
2023/09/17 01:20:30;;;;;;;;;36.50;33.50;;;;;18.45;64.42;99596.28;5052628;28;8908;-67
2023/09/17 01:23:05;;;;;;;;;44.75;38.25;;;;;18.38;64.93;99594.88;5070179;28;8990;-67
2023/09/17 01:25:47;;;;;;;;;35.20;32.60;;;;;18.37;65.15;99595.00;5088533;28;8847;-66
2023/09/17 01:28:18;;;;;;;;;35.40;32.80;;;;;18.33;65.01;99592.47;5086076;28;8844;-66
2023/09/17 01:30:48;;;;;;;;;37.40;33.40;;;;;18.33;65.09;99600.47;5070395;28;8867;-66
2023/09/17 01:33:16;;;;;;;;;34.20;31.20;;;;;18.39;64.82;99595.75;5052551;28;8852;-67
2023/09/17 01:35:54;;;;;;;;;39.00;34.60;;;;;18.37;65.06;99595.84;5088089;28;8932;-67
2023/09/17 01:38:32;;;;;;;;;36.20;32.00;;;;;18.33;65.03;99597.81;5088287;28;8871;-67
2023/09/17 01:41:04;;;;;;;;;37.75;34.00;;;;;18.35;65.02;99601.25;5070340;28;8863;-67
2023/09/17 01:43:37;;;;;;;;;34.20;31.60;;;;;18.31;65.39;99598.84;5068912;28;8931;-67
2023/09/17 01:46:08;;;;;;;;;34.20;31.60;;;;;18.25;65.49;99591.16;5119946;28;8831;-67
2023/09/17 01:48:38;;;;;;;;;37.25;34.00;;;;;18.16;65.86;99585.38;5088557;28;8852;-68
2023/09/17 01:51:09;;;;;;;;;38.75;35.00;;;;;18.11;66.18;99591.88;5086852;28;8866;-67
2023/09/17 01:53:38;;;;;;;;;40.40;34.60;;;;;18.05;66.31;99585.06;5088258;28;8910;-66
2023/09/17 01:56:07;;;;;;;;;34.80;32.80;;;;;18.09;66.03;99591.94;5074073;28;9632;-66
2023/09/17 01:58:37;;;;;;;;;36.40;33.00;;;;;18.12;65.78;99589.13;5090481;28;8920;-68
2023/09/17 02:01:07;;;;;;;;;33.40;32.40;;;;;18.12;65.72;99580.31;5054676;28;8951;-67
2023/09/17 02:03:35;;;;;;;;;42.00;35.00;;;;;18.11;65.85;99581.22;5092311;28;8851;-68
2023/09/17 02:06:05;;;;;;;;;38.00;33.80;;;;;18.14;65.72;99581.09;5074139;28;8944;-66
2023/09/17 02:08:36;;;;;;;;;37.75;34.25;;;;;18.11;65.66;99575.91;5090615;28;9628;-66
2023/09/17 02:11:06;;;;;;;;;36.60;33.00;;;;;18.13;65.69;99582.88;5090736;28;8848;-67
2023/09/17 02:13:35;;;;;;;;;34.80;32.40;;;;;18.06;65.91;99585.91;5042403;28;8959;-68
2023/09/17 02:16:05;;;;;;;;;38.60;34.00;;;;;18.11;65.61;99583.91;5070403;28;8880;-67
2023/09/17 02:18:34;;;;;;;;;35.80;32.80;;;;;18.13;65.50;99580.19;5082172;28;8920;-67
2023/09/17 02:21:03;;;;;;;;;37.20;33.00;;;;;18.10;65.43;99574.19;5090699;28;8953;-67
2023/09/17 02:23:32;;;;;;;;;35.40;32.40;;;;;18.12;65.34;99575.84;5092052;28;8970;-68
2023/09/17 02:26:01;;;;;;;;;36.00;33.20;;;;;18.09;65.55;99570.66;5087709;28;8847;-67
2023/09/17 02:28:30;;;;;;;;;33.60;31.20;;;;;18.08;65.45;99576.94;5071523;28;8965;-66
2023/09/17 02:31:00;;;;;;;;;37.50;33.00;;;;;18.12;65.39;99561.69;5103629;28;8847;-67
2023/09/17 02:33:30;;;;;;;;;33.40;32.00;;;;;18.06;65.66;99568.19;5069966;28;8935;-68
2023/09/17 02:36:00;;;;;;;;;36.20;33.00;;;;;18.01;65.74;99569.31;5121104;27;8874;-67
2023/09/17 02:38:29;;;;;;;;;37.40;32.80;;;;;17.96;66.00;99572.22;5055623;28;8886;-66
2023/09/17 02:40:58;;;;;;;;;37.80;33.00;;;;;18.00;65.86;99571.09;5091522;28;8843;-66
2023/09/17 02:43:29;;;;;;;;;39.00;33.80;;;;;17.98;65.97;99565.00;5044917;28;8854;-66
2023/09/17 02:45:58;;;;;;;;;34.20;30.40;;;;;17.96;66.11;99566.88;5069026;28;8896;-67
2023/09/17 02:48:27;;;;;;;;;36.60;31.80;;;;;17.93;66.10;99565.25;5071088;28;8990;-66
2023/09/17 02:50:57;;;;;;;;;37.20;32.60;;;;;18.00;66.04;99564.94;5071858;28;8920;-67
2023/09/17 02:53:26;;;;;;;;;37.80;33.40;;;;;18.04;65.83;99567.38;5089923;28;8851;-67
2023/09/17 02:55:55;;;;;;;;;36.80;32.60;;;;;18.06;65.74;99564.63;5089698;28;8867;-67
2023/09/17 02:58:24;;;;;;;;;36.25;32.25;;;;;18.09;65.61;99561.84;5039007;28;8945;-68
2023/09/17 03:00:53;;;;;;;;;34.40;32.20;;;;;18.10;65.69;99563.53;5089707;28;8843;-66
2023/09/17 03:03:23;;;;;;;;;33.80;31.80;;;;;18.16;65.27;99560.56;5090968;28;8851;-65
2023/09/17 03:05:53;;;;;;;;;41.20;35.80;;;;;18.22;65.21;99565.56;5089269;28;8832;-68
2023/09/17 03:08:26;;;;;;;;;32.80;30.60;;;;;18.26;64.89;99559.16;5088326;28;8863;-66
2023/09/17 03:10:59;;;;;;;;;36.40;33.20;;;;;18.36;64.76;99562.16;5089572;28;8831;-67
2023/09/17 03:13:28;;;;;;;;;33.40;31.60;;;;;18.37;64.65;99558.59;5086087;28;8850;-65
2023/09/17 03:15:58;;;;;;;;;34.80;31.80;;;;;18.40;64.40;99555.75;5018917;28;8838;-67
2023/09/17 03:18:28;;;;;;;;;33.40;30.80;;;;;18.42;64.26;99561.88;5102977;28;8850;-68
2023/09/17 03:20:57;;;;;;;;;31.20;31.00;;;;;18.40;64.47;99561.06;5102643;28;8850;-68
2023/09/17 03:23:27;;;;;;;;;36.80;33.00;;;;;18.40;64.34;99555.75;5034591;28;8860;-67
2023/09/17 03:25:56;;;;;;;;;33.60;32.20;;;;;18.44;64.14;99559.97;5120927;27;8899;-67
2023/09/17 03:28:25;;;;;;;;;29.80;28.80;;;;;18.45;64.09;99560.84;5089358;28;8851;-67
2023/09/17 03:30:55;;;;;;;;;30.80;28.20;;;;;18.46;64.00;99562.53;5054807;28;8848;-66
2023/09/17 03:33:24;;;;;;;;;32.20;29.80;;;;;18.42;63.97;99561.88;5074304;28;8882;-66
2023/09/17 03:35:53;;;;;;;;;40.00;32.80;;;;;18.40;64.14;99561.06;5068861;28;8858;-68
2023/09/17 03:38:24;;;;;;;;;33.60;31.80;;;;;18.35;64.29;99557.81;5102183;28;9639;-66
2023/09/17 03:40:55;;;;;;;;;35.80;32.20;;;;;18.30;64.45;99560.69;5068354;28;9640;-66
2023/09/17 03:43:24;;;;;;;;;32.60;30.40;;;;;18.26;64.64;99563.63;5067068;28;8876;-66
2023/09/17 03:45:53;;;;;;;;;33.00;31.60;;;;;18.14;65.02;99562.47;5001922;28;8900;-66
2023/09/17 03:48:23;;;;;;;;;33.40;31.40;;;;;18.11;65.21;99563.47;5066766;28;8866;-65
2023/09/17 03:50:52;;;;;;;;;36.20;33.00;;;;;18.15;64.96;99570.34;5034440;28;8850;-66
2023/09/17 03:53:21;;;;;;;;;37.00;34.25;;;;;18.11;65.15;99563.47;5017347;28;8858;-67
2023/09/17 03:55:51;;;;;;;;;37.40;33.40;;;;;18.08;65.31;99570.75;5050335;28;8834;-67
2023/09/17 03:58:22;;;;;;;;;36.20;33.20;;;;;17.98;65.87;99568.53;5065233;28;8847;-66
2023/09/17 04:00:51;;;;;;;;;38.60;33.20;;;;;17.93;66.08;99561.72;5050485;28;8861;-68
2023/09/17 04:03:20;;;;;;;;;37.40;34.40;;;;;18.01;65.78;99569.31;5066646;28;8854;-66
2023/09/17 04:05:51;;;;;;;;;36.25;32.75;;;;;17.99;65.90;99569.41;5050413;28;9697;-66
2023/09/17 04:08:19;;;;;;;;;36.50;33.00;;;;;17.92;65.96;99566.19;5066640;28;8936;-66
2023/09/17 04:10:49;;;;;;;;;32.40;30.40;;;;;17.89;66.16;99565.47;5066945;28;8862;-67
2023/09/17 04:13:19;;;;;;;;;35.40;32.60;;;;;17.84;66.29;99567.53;5065545;28;8839;-66
2023/09/17 04:15:50;;;;;;;;;31.80;30.20;;;;;17.84;66.35;99567.53;5068750;28;9618;-65
2023/09/17 04:18:19;;;;;;;;;35.40;32.20;;;;;17.86;66.30;99565.66;5052899;28;8984;-66
2023/09/17 04:20:48;;;;;;;;;34.20;31.60;;;;;17.83;66.45;99571.97;5086643;28;8826;-66
2023/09/17 04:23:18;;;;;;;;;35.40;32.20;;;;;17.86;66.46;99573.63;5082873;28;9002;-66
2023/09/17 04:25:47;;;;;;;;;33.60;30.20;;;;;17.87;66.48;99572.69;5049803;28;8960;-68
2023/09/17 04:28:18;;;;;;;;;31.20;30.40;;;;;17.87;66.16;99576.22;5065522;28;8846;-67
2023/09/17 04:30:47;;;;;;;;;36.80;32.20;;;;;17.74;66.92;99572.44;5067973;28;8838;-66
2023/09/17 04:33:19;;;;;;;;;33.20;31.60;;;;;17.79;66.60;99578.38;5049629;28;8846;-65
2023/09/17 04:35:48;;;;;;;;;38.00;32.20;;;;;17.82;66.59;99580.91;5067793;28;8842;-67
2023/09/17 04:38:18;;;;;;;;;36.80;32.00;;;;;17.87;66.33;99583.31;5067571;28;8913;-68
2023/09/17 04:40:48;;;;;;;;;31.40;30.00;;;;;17.82;66.46;99577.38;5067477;28;8846;-66
2023/09/17 04:43:19;;;;;;;;;32.00;31.00;;;;;17.80;66.59;99577.47;5034059;28;9005;-66
2023/09/17 04:45:49;;;;;;;;;30.40;29.40;;;;;17.83;66.68;99579.94;5034107;28;8858;-67
2023/09/17 04:48:27;;;;;;;;;34.40;31.60;;;;;17.85;66.41;99588.69;5068270;28;8862;-76
2023/09/17 04:50:56;;;;;;;;;35.00;32.20;;;;;17.90;66.21;99585.81;5073974;28;8873;-76
2023/09/17 04:53:25;;;;;;;;;36.80;33.00;;;;;17.87;66.21;99584.19;5080705;28;8839;-75
2023/09/17 04:55:55;;;;;;;;;33.60;31.60;;;;;17.91;66.11;99579.56;5074414;28;8865;-76
2023/09/17 04:58:31;;;;;;;;;34.00;31.00;;;;;17.87;66.43;99583.31;5085992;28;8862;-77
2023/09/17 05:01:04;;;;;;;;;34.00;32.00;;;;;17.91;66.19;99580.44;5068181;28;8936;-77
2023/09/17 05:03:37;;;;;;;;;32.20;31.20;;;;;17.98;66.11;99586.28;5104992;28;8856;-76
2023/09/17 05:06:06;;;;;;;;;35.80;32.40;;;;;18.12;65.40;99589.13;5071198;28;8854;-76
2023/09/17 05:08:35;;;;;;;;;34.40;30.60;;;;;18.16;65.21;99593.34;5054075;28;8855;-77
2023/09/17 05:11:05;;;;;;;;;35.20;31.40;;;;;18.24;64.88;99586.78;5066390;28;8848;-77
2023/09/17 05:13:34;;;;;;;;;25.60;24.60;;;;;18.29;64.71;99598.91;5069613;28;9024;-77
2023/09/17 05:16:04;;;;;;;;;27.80;27.80;;;;;18.37;64.48;99582.53;5034315;28;8872;-76
2023/09/17 05:18:33;;;;;;;;;28.00;27.60;;;;;18.41;64.15;99588.56;5048783;28;8848;-76
2023/09/17 05:21:03;;;;;;;;;29.40;27.80;;;;;18.45;64.22;99587.44;5078735;28;8831;-78
2023/09/17 05:23:33;;;;;;;;;27.00;25.00;;;;;18.51;64.02;99590.63;5067757;28;9699;-76
2023/09/17 05:26:03;;;;;;;;;26.80;25.20;;;;;18.63;63.49;99596.25;4984928;28;8901;-78
2023/09/17 05:28:32;;;;;;;;;30.80;28.60;;;;;18.66;63.49;99598.75;5066006;28;8878;-76
2023/09/17 05:31:03;;;;;;;;;31.00;29.60;;;;;18.70;63.50;99598.50;5049074;28;8847;-76
2023/09/17 05:33:32;;;;;;;;;28.20;25.80;;;;;18.85;62.83;99601.31;5049623;28;8856;-76
2023/09/17 05:36:05;;;;;;;;;40.00;34.00;;;;;18.98;62.36;99602.34;5034964;28;8836;-76
2023/09/17 05:38:34;;;;;;;;;27.80;26.40;;;;;18.99;62.49;99597.88;5066219;28;8872;-77
2023/09/17 05:41:04;;;;;;;;;28.40;27.60;;;;;19.11;62.15;99602.53;5066034;28;8867;-77
2023/09/17 05:43:33;;;;;;;;;31.20;29.20;;;;;19.11;61.94;99606.06;5087660;28;8871;-76
2023/09/17 05:46:04;;;;;;;;;31.20;30.40;;;;;19.22;61.79;99601.94;5092305;28;8881;-76
2023/09/17 05:48:41;;;;;;;;;27.80;27.00;;;;;19.34;61.12;99617.22;5054873;28;8865;-76
2023/09/17 05:51:12;;;;;;;;;30.80;27.20;;;;;19.30;61.20;99611.22;5037157;28;8941;-76
2023/09/17 05:53:40;;;;;;;;;27.40;27.20;;;;;19.40;61.10;99618.69;5010163;28;8999;-76
2023/09/17 05:56:11;;;;;;;;;24.40;22.80;;;;;19.48;60.78;99613.78;5026577;28;8856;-77
2023/09/17 05:58:41;;;;;;;;;27.20;26.40;;;;;19.59;60.61;99615.88;5012476;28;8860;-76
2023/09/17 06:01:11;;;;;;;;;25.80;25.60;;;;;19.57;60.68;99618.63;5008917;28;8870;-76
2023/09/17 06:03:39;;;;;;;;;30.60;29.60;;;;;19.68;60.43;99618.88;5057982;28;8922;-77
2023/09/17 06:06:09;;;;;;;;;25.80;25.80;;;;;19.70;60.20;99624.13;5025497;28;8845;-75
2023/09/17 06:08:39;;;;;;;;;25.00;24.60;;;;;19.85;59.76;99623.22;4993503;28;8891;-76
2023/09/17 06:11:08;;;;;;;;;25.40;25.00;;;;;19.91;59.21;99622.00;5018658;28;8871;-75
2023/09/17 06:13:37;;;;;;;;;23.80;23.80;;;;;20.03;59.07;99626.63;5039099;28;9713;-75
2023/09/17 06:16:07;;;;;;;;;26.00;26.00;;;;;20.05;58.82;99631.88;5028077;28;8842;-75
2023/09/17 06:18:36;;;;;;;;;35.60;31.60;;;;;20.18;58.55;99632.00;5028012;28;8872;-75
2023/09/17 06:21:05;;;;;;;;;29.00;27.00;;;;;20.23;57.78;99636.13;5079507;28;8886;-77
2023/09/17 06:23:35;;;;;;;;;25.40;25.40;;;;;20.19;57.94;99637.25;5086718;28;8936;-77
2023/09/17 06:26:08;;;;;;;;;21.80;20.60;;;;;20.20;58.10;99644.31;5086739;28;8843;-75
2023/09/17 06:28:38;;;;;;;;;23.40;23.20;;;;;20.18;58.49;99643.53;5073122;28;8852;-74
2023/09/17 06:31:08;;;;;;;;;26.40;25.80;;;;;20.29;57.80;99641.13;5082946;28;8851;-75
2023/09/17 06:33:37;;;;;;;;;22.40;21.80;;;;;20.32;57.42;99639.22;5102556;28;8878;-75
2023/09/17 06:36:07;;;;;;;;;24.80;24.60;;;;;20.45;57.68;99646.38;5066433;28;8826;-76
2023/09/17 06:38:35;;;;;;;;;23.20;22.20;;;;;20.58;57.17;99643.84;5081972;28;8897;-76
2023/09/17 06:41:06;;;;;;;;;27.60;26.00;;;;;20.59;57.31;99650.88;5080868;28;8856;-76
2023/09/17 06:43:35;;;;;;;;;22.80;21.40;;;;;20.69;56.84;99637.84;5090213;28;8855;-76
2023/09/17 06:46:04;;;;;;;;;19.20;19.20;;;;;20.79;56.76;99647.00;5062678;28;9004;-77
2023/09/17 06:48:33;;;;;;;;;27.00;26.20;;;;;20.90;56.21;99651.69;5086676;28;8852;-76
2023/09/17 06:51:02;;;;;;;;;23.80;23.00;;;;;20.89;56.33;99644.59;5055594;28;8906;-76
2023/09/17 06:53:31;;;;;;;;;25.00;24.60;;;;;20.88;56.16;99650.91;5091153;28;8955;-77
2023/09/17 06:56:01;;;;;;;;;26.60;24.80;;;;;20.97;55.92;99661.03;5091225;28;8836;-77
2023/09/17 06:58:32;;;;;;;;;23.60;23.00;;;;;21.17;55.92;99666.97;5089851;28;8875;-77
2023/09/17 07:01:02;;;;;;;;;27.60;27.60;;;;;21.30;55.20;99657.19;5071448;28;8923;-75
2023/09/17 07:03:30;;;;;;;;;28.40;28.00;;;;;21.41;54.93;99660.03;5084611;28;9608;-75
2023/09/17 07:06:00;;;;;;;;;32.00;29.80;;;;;21.53;54.49;99663.72;5070817;28;8862;-75
2023/09/17 07:08:29;;;;;;;;;25.00;25.00;;;;;21.50;54.56;99661.25;5081044;28;8859;-76
2023/09/17 07:10:58;;;;;;;;;22.20;22.20;;;;;21.43;54.56;99658.13;5090555;28;9113;-76
2023/09/17 07:13:27;;;;;;;;;24.40;22.80;;;;;21.46;54.29;99667.75;5098620;28;8870;-75
2023/09/17 07:15:57;;;;;;;;;26.00;25.80;;;;;21.62;54.33;99670.34;5075531;28;8903;-75
2023/09/17 07:18:30;;;;;;;;;22.00;20.80;;;;;21.76;53.79;99669.44;5063160;28;8832;-75
2023/09/17 07:20:59;;;;;;;;;23.00;22.20;;;;;21.90;53.41;99676.53;5068001;28;8868;-76
2023/09/17 07:23:29;;;;;;;;;19.20;19.00;;;;;21.85;53.38;99671.50;5057339;28;8947;-75
2023/09/17 07:25:58;;;;;;;;;23.20;23.20;;;;;22.02;53.18;99675.75;5047582;28;9736;-75
2023/09/17 07:28:27;;;;;;;;;26.00;25.40;;;;;22.15;53.01;99676.63;5023671;28;8852;-76
2023/09/17 07:30:59;;;;;;;;;25.40;23.20;;;;;22.35;52.58;99680.69;5054218;28;8840;-75
2023/09/17 07:33:28;;;;;;;;;25.00;24.40;;;;;22.34;52.45;99680.78;5058896;28;8830;-76
2023/09/17 07:35:57;;;;;;;;;41.40;35.00;;;;;22.55;51.78;99689.16;5057285;28;8872;-76
2023/09/17 07:38:26;;;;;;;;;29.20;29.00;;;;;22.71;51.26;99694.31;5047354;28;9654;-77
2023/09/17 07:40:55;;;;;;;;;26.80;25.00;;;;;22.75;50.80;99703.84;5051374;28;8851;-77
2023/09/17 07:43:24;;;;;;;;;24.80;24.80;;;;;22.73;50.63;99693.25;5052917;28;8874;-74
2023/09/17 07:45:53;;;;;;;;;27.40;27.40;;;;;22.70;50.82;99700.66;5019108;28;8858;-71
2023/09/17 07:48:24;;;;;;;;;25.40;25.40;;;;;22.71;50.67;99705.91;5065649;28;8852;-75
2023/09/17 07:50:57;;;;;;;;;39.75;34.50;;;;;22.84;50.54;99694.31;5046623;28;8862;-75
2023/09/17 07:53:27;;;;;;;;;22.60;22.60;;;;;22.69;50.33;99694.41;5055896;28;8851;-75
2023/09/17 07:55:57;;;;;;;;;23.40;23.40;;;;;22.80;50.44;99699.88;5072586;28;8975;-76
2023/09/17 07:58:26;;;;;;;;;24.00;22.40;;;;;22.86;49.76;99690.53;5071037;28;8926;-76
2023/09/17 08:00:55;;;;;;;;;23.80;21.00;;;;;22.80;50.02;99697.19;5088724;28;8863;-77
2023/09/17 08:03:25;;;;;;;;;25.40;24.00;;;;;22.88;50.09;99702.00;5053340;28;8978;-76
2023/09/17 08:05:55;;;;;;;;;25.00;24.40;;;;;22.80;50.39;99709.75;5085891;28;8850;-78
2023/09/17 08:08:24;;;;;;;;;18.80;18.80;;;;;22.98;50.02;99702.28;5085620;28;8852;-78
2023/09/17 08:10:54;;;;;;;;;28.20;28.00;;;;;23.02;50.05;99709.16;5073855;28;8881;-76
2023/09/17 08:13:23;;;;;;;;;24.40;23.80;;;;;23.00;49.87;99698.53;5049451;28;8856;-77
2023/09/17 08:15:52;;;;;;;;;23.80;22.60;;;;;23.11;49.29;99700.44;5089153;28;8940;-78
2023/09/17 08:18:21;;;;;;;;;21.40;21.40;;;;;23.15;49.19;99709.13;5064336;28;8840;-77
2023/09/17 08:20:51;;;;;;;;;21.00;21.00;;;;;23.24;49.28;99702.25;5089888;28;8859;-75
2023/09/17 08:23:21;;;;;;;;;24.40;24.00;;;;;23.16;49.30;99708.16;5050100;28;9656;-76
2023/09/17 08:26:10;;;;;;;;;23.00;21.40;;;;;23.19;48.90;99703.44;5069421;28;9013;-75
2023/09/17 08:29:00;;;;;;;;;28.60;27.80;;;;;23.23;49.15;99706.75;5073679;28;8855;-75
2023/09/17 08:31:49;;;;;;;;;24.20;23.40;;;;;23.35;48.69;99705.84;5076518;28;8937;-74
2023/09/17 08:34:38;;;;;;;;;24.60;24.20;;;;;23.46;48.54;99710.47;5087414;28;8855;-75
2023/09/17 08:37:08;;;;;;;;;24.00;21.00;;;;;23.51;48.28;99718.19;5089122;28;8924;-76
2023/09/17 08:39:37;;;;;;;;;21.40;21.40;;;;;23.69;47.86;99710.63;5098041;28;8858;-76
2023/09/17 08:42:07;;;;;;;;;22.20;21.40;;;;;23.83;47.73;99717.66;5069112;28;8868;-76
2023/09/17 08:44:37;;;;;;;;;21.40;21.00;;;;;24.02;47.59;99715.34;5085057;28;8860;-75
2023/09/17 08:47:06;;;;;;;;;22.40;22.40;;;;;23.99;46.80;99712.88;5086857;28;8840;-72
2023/09/17 08:49:36;;;;;;;;;20.40;20.40;;;;;24.03;46.67;99714.38;5051593;28;8939;-70
2023/09/17 08:52:10;;;;;;;;;20.40;19.20;;;;;24.12;46.53;99715.50;5085793;28;9737;-70
2023/09/17 08:54:42;;;;;;;;;20.80;20.40;;;;;24.09;46.73;99719.28;5066928;28;8838;-71
2023/09/17 08:57:13;;;;;;;;;23.20;21.60;;;;;24.03;46.79;99716.19;5067842;28;8869;-72
2023/09/17 08:59:46;;;;;;;;;24.20;24.00;;;;;24.13;46.23;99715.44;5081258;28;8879;-74
2023/09/17 09:02:22;;;;;;;;;20.00;20.00;;;;;24.02;46.36;99720.72;5064213;28;8871;-65
2023/09/17 09:04:52;;;;;;;;;25.00;23.60;;;;;24.07;46.49;99718.53;5064975;28;8863;-67
2023/09/17 09:07:23;;;;;;;;;24.00;24.00;;;;;24.21;46.38;99727.44;5064289;28;8860;-67
2023/09/17 09:09:53;;;;;;;;;24.20;23.00;;;;;24.32;45.91;99711.34;5065555;28;8836;-69
2023/09/17 09:12:22;;;;;;;;;18.40;17.80;;;;;24.52;45.38;99716.03;5065501;28;8871;-67
2023/09/17 09:14:51;;;;;;;;;22.20;21.00;;;;;24.46;45.09;99721.91;5032610;28;8848;-68
2023/09/17 09:17:20;;;;;;;;;18.80;18.40;;;;;24.41;45.42;99717.84;5065472;28;8859;-68
2023/09/17 09:19:50;;;;;;;;;21.20;20.20;;;;;24.39;45.17;99725.16;5065136;28;8836;-66
2023/09/17 09:22:19;;;;;;;;;24.20;24.20;;;;;24.52;45.17;99715.19;5064142;28;8991;-68
2023/09/17 09:24:50;;;;;;;;;21.00;21.00;;;;;24.63;44.85;99720.59;5047334;28;8883;-68
2023/09/17 09:27:19;;;;;;;;;28.00;27.00;;;;;24.51;44.62;99719.72;5065095;28;8852;-66
2023/09/17 09:29:48;;;;;;;;;37.75;33.25;;;;;24.66;44.57;99717.69;5064985;28;9016;-66
2023/09/17 09:32:19;;;;;;;;;21.80;21.00;;;;;24.73;44.46;99723.47;5065142;28;8855;-67
2023/09/17 09:34:49;;;;;;;;;21.80;20.20;;;;;24.75;44.48;99718.81;5088169;28;8847;-67
2023/09/17 09:37:21;;;;;;;;;24.40;23.80;;;;;24.81;44.55;99721.06;5087187;28;8949;-67
2023/09/17 09:39:52;;;;;;;;;17.00;17.00;;;;;24.77;44.58;99722.25;5067501;28;8827;-66
2023/09/17 09:42:23;;;;;;;;;24.20;23.00;;;;;24.86;44.65;99720.69;5093837;28;8843;-66
2023/09/17 09:44:52;;;;;;;;;19.40;18.00;;;;;24.97;44.10;99723.38;5105497;28;8878;-67
2023/09/17 09:47:23;;;;;;;;;21.40;20.40;;;;;25.07;44.10;99718.13;5105497;28;8844;-67
2023/09/17 09:49:52;;;;;;;;;20.60;18.80;;;;;25.17;43.63;99726.31;5105288;28;8882;-67
2023/09/17 09:52:22;;;;;;;;;22.60;21.00;;;;;25.19;43.41;99727.06;5072239;28;8847;-68
2023/09/17 09:54:53;;;;;;;;;19.40;19.40;;;;;25.35;43.19;99721.34;5105367;28;9009;-65
2023/09/17 09:57:25;;;;;;;;;23.60;23.00;;;;;25.39;42.44;99715.59;5071867;28;9643;-67
2023/09/17 09:59:54;;;;;;;;;18.80;18.80;;;;;25.29;42.38;99719.97;5099988;28;8886;-68
2023/09/17 10:02:24;;;;;;;;;27.00;25.40;;;;;25.43;41.59;99725.13;5086407;28;8990;-68
2023/09/17 10:04:53;;;;;;;;;19.80;18.80;;;;;25.45;41.99;99720.47;5087862;28;8863;-66
2023/09/17 10:07:22;;;;;;;;;17.00;16.80;;;;;25.69;41.64;99716.78;5086294;28;8836;-67
2023/09/17 10:09:53;;;;;;;;;19.40;19.00;;;;;25.87;41.38;99717.06;5078307;28;8853;-66
2023/09/17 10:12:22;;;;;;;;;19.40;19.40;;;;;25.77;41.27;99721.53;5067987;28;8850;-65
2023/09/17 10:14:52;;;;;;;;;20.40;19.40;;;;;25.58;42.28;99717.63;5069099;28;8843;-65
2023/09/17 10:17:21;;;;;;;;;19.00;19.00;;;;;25.73;41.62;99710.16;5074954;28;8836;-67
2023/09/17 10:19:52;;;;;;;;;22.00;19.80;;;;;25.65;42.21;99715.31;5091410;28;8848;-67
2023/09/17 10:22:23;;;;;;;;;17.80;17.80;;;;;25.80;40.99;99718.59;5091282;28;8848;-65
2023/09/17 10:24:55;;;;;;;;;20.20;19.80;;;;;25.83;41.01;99719.19;5091688;28;8844;-68
2023/09/17 10:27:25;;;;;;;;;19.00;19.00;;;;;25.86;41.23;99704.63;5071896;28;8862;-68
2023/09/17 10:29:56;;;;;;;;;17.20;17.20;;;;;26.01;40.74;99722.22;5091484;28;8848;-66
2023/09/17 10:32:26;;;;;;;;;34.25;30.50;;;;;25.98;40.72;99717.06;5091175;28;8932;-66
2023/09/17 10:34:57;;;;;;;;;18.40;18.40;;;;;25.99;40.47;99713.41;5089730;28;9637;-65
2023/09/17 10:37:27;;;;;;;;;17.40;17.40;;;;;25.84;40.89;99712.81;5091356;28;8857;-67
2023/09/17 10:39:58;;;;;;;;;18.20;17.80;;;;;25.82;40.45;99706.69;5060629;28;8984;-65
2023/09/17 10:42:29;;;;;;;;;19.60;19.60;;;;;25.94;40.15;99710.25;5068618;28;8862;-67
2023/09/17 10:45:00;;;;;;;;;20.40;20.00;;;;;26.02;40.63;99715.00;5071028;28;8869;-66
2023/09/17 10:47:30;;;;;;;;;21.80;21.40;;;;;25.89;40.55;99702.53;5035619;28;8927;-67
2023/09/17 10:50:00;;;;;;;;;30.50;27.75;;;;;25.79;40.41;99701.56;5035609;28;8854;-67
2023/09/17 10:52:29;;;;;;;;;23.40;23.20;;;;;25.87;39.90;99698.22;5085350;28;8890;-65
2023/09/17 10:55:00;;;;;;;;;14.80;13.80;;;;;25.82;40.22;99695.09;5091195;28;8924;-66
2023/09/17 10:57:38;;;;;;;;;20.60;20.60;;;;;25.98;39.56;99698.22;5089512;28;10036;-66
2023/09/17 11:00:13;;;;;;;;;18.40;17.80;;;;;26.01;39.60;99697.13;5079626;28;8861;-67
2023/09/17 11:02:47;;;;;;;;;16.80;16.40;;;;;26.07;39.62;99693.91;5070694;28;8850;-67
2023/09/17 11:05:22;;;;;;;;;21.40;20.40;;;;;26.23;39.41;99693.47;5034852;28;8880;-66
2023/09/17 11:07:53;;;;;;;;;19.20;19.20;;;;;26.40;38.46;99694.72;5069926;28;8862;-66
2023/09/17 11:10:25;;;;;;;;;22.20;21.60;;;;;26.53;38.51;99694.56;5087093;28;8816;-67
2023/09/17 11:13:00;;;;;;;;;21.00;20.00;;;;;26.55;38.77;99701.56;5085364;28;8858;-66
2023/09/17 11:15:31;;;;;;;;;18.40;18.40;;;;;26.59;38.89;99689.53;5070316;28;9603;-66
2023/09/17 11:18:01;;;;;;;;;18.00;18.00;;;;;26.55;38.98;99685.38;5070075;28;8895;-67
2023/09/17 11:20:31;;;;;;;;;19.80;18.20;;;;;26.67;38.87;99686.16;5070190;28;8881;-67
2023/09/17 11:23:02;;;;;;;;;23.00;21.60;;;;;26.65;38.53;99680.06;5070062;28;8869;-68
2023/09/17 11:25:39;;;;;;;;;26.00;25.00;;;;;27.02;38.17;99672.34;5086386;28;8823;-65
2023/09/17 11:28:10;;;;;;;;;18.20;16.60;;;;;26.88;37.49;99672.66;5090247;28;8859;-66
2023/09/17 11:30:58;;;;;;;;;20.40;20.40;;;;;27.24;37.32;99667.72;5073358;28;10248;-68
2023/09/17 11:33:28;;;;;;;;;19.60;19.60;;;;;27.12;37.09;99669.66;5034278;28;8897;-65
2023/09/17 11:35:59;;;;;;;;;51.00;43.00;;;;;27.48;36.96;99667.34;5070181;28;8846;-65
2023/09/17 11:38:29;;;;;;;;;18.20;17.20;;;;;27.74;36.75;99673.13;5070058;28;8894;-66